Time;durP1;ratioP1;P1;durP2;ratioP2;P2;SDS_P1;SDS_P2;PMS_P1;PMS_P2;Temp;Humidity;BMP_temperature;BMP_pressure;BME280_temperature;BME280_humidity;BME280_pressure;Samples;Min_cycle;Max_cycle;Signal;HPM_P1;HPM_P2
2023/07/21 00:00:40;;;;;;;2.50;2.40;;;19.80;99.90;;;20.30;68.58;101172.03;5055689;28;20043;-70
2023/07/21 00:03:09;;;;;;;2.28;2.17;;;19.80;99.90;;;20.35;69.10;101170.03;5054765;28;20049;-70
2023/07/21 00:05:37;;;;;;;2.45;2.35;;;19.90;99.90;;;20.27;70.98;101175.72;5051638;28;20506;-70
2023/07/21 00:08:07;;;;;;;2.47;2.38;;;19.80;99.90;;;20.22;70.01;101172.34;5055578;28;20104;-70
2023/07/21 00:10:35;;;;;;;2.30;2.20;;;19.70;99.90;;;20.22;70.58;101166.97;5055443;28;20551;-70
2023/07/21 00:13:03;;;;;;;2.70;2.60;;;19.70;99.90;;;20.20;71.33;101158.09;5062983;28;20048;-70
2023/07/21 00:15:32;;;;;;;2.40;2.30;;;19.80;99.90;;;20.33;71.82;101166.53;5055340;28;20537;-70
2023/07/21 00:18:03;;;;;;;2.63;2.53;;;19.80;99.90;;;20.29;70.68;101170.28;5055368;28;20056;-70
2023/07/21 00:20:32;;;;;;;2.55;2.45;;;19.80;99.90;;;20.33;70.42;101164.72;5055682;28;20049;-70
2023/07/21 00:23:01;;;;;;;2.53;2.42;;;19.80;99.90;;;20.34;69.83;101168.31;5055813;28;20045;-70
2023/07/21 00:25:29;;;;;;;2.50;2.40;;;19.80;99.90;;;20.29;70.29;101167.59;5055488;28;20049;-70
2023/07/21 00:27:58;;;;;;;2.58;2.47;;;19.80;99.90;;;20.36;70.33;101169.13;5050303;28;20044;-70
2023/07/21 00:30:27;;;;;;;2.63;2.53;;;19.90;99.90;;;19.99;73.25;101169.66;5062837;28;20084;-70
2023/07/21 00:32:57;;;;;;;2.60;2.50;;;19.60;99.90;;;19.93;74.63;101161.81;5051569;28;20045;-70
2023/07/21 00:35:27;;;;;;;2.63;2.53;;;19.40;99.90;;;20.06;73.25;101159.53;5070389;28;20132;-70
2023/07/21 00:37:58;;;;;;;2.80;2.70;;;19.50;99.90;;;20.10;74.00;101161.16;5055035;28;20076;-71
2023/07/21 00:40:27;;;;;;;2.42;2.33;;;19.60;99.90;;;20.10;73.29;101147.72;5054963;28;20499;-70
2023/07/21 00:42:58;;;;;;;2.40;2.30;;;19.60;99.90;;;20.11;71.79;101154.88;5053909;28;20148;-70
2023/07/21 00:45:28;;;;;;;2.88;2.78;;;19.60;99.90;;;19.93;73.39;101150.19;5051155;28;20059;-71
2023/07/21 00:47:58;;;;;;;2.65;2.55;;;19.40;99.90;;;19.87;74.45;101150.41;5053759;28;20083;-70
2023/07/21 00:50:28;;;;;;;2.60;2.50;;;19.40;99.90;;;19.92;74.56;101140.41;5051419;28;20055;-70
2023/07/21 00:52:58;;;;;;;2.70;2.60;;;19.40;99.90;;;19.93;74.39;101143.03;5054564;28;20379;-70
2023/07/21 00:55:27;;;;;;;2.80;2.70;;;19.40;99.90;;;19.64;74.21;101141.44;5054967;28;20043;-70
2023/07/21 00:57:56;;;;;;;2.58;2.47;;;19.30;99.90;;;19.39;74.44;101137.91;5054589;28;20067;-70
2023/07/21 01:00:24;;;;;;;2.40;2.30;;;19.00;99.90;;;19.25;74.81;101139.28;5054730;28;20105;-70
2023/07/21 01:02:53;;;;;;;2.70;2.60;;;18.80;99.90;;;19.20;74.59;101133.22;5070385;28;20404;-70
2023/07/21 01:05:23;;;;;;;2.65;2.55;;;18.80;99.90;;;19.20;75.08;101135.91;5049729;28;20037;-70
2023/07/21 01:07:53;;;;;;;3.10;3.00;;;18.80;99.90;;;19.15;75.47;101135.16;5054675;28;20425;-70
2023/07/21 01:10:22;;;;;;;2.58;2.47;;;18.70;99.90;;;19.13;75.75;101134.34;5051462;28;20049;-70
2023/07/21 01:12:50;;;;;;;3.08;2.97;;;18.70;99.90;;;19.16;76.83;101131.56;5054531;28;20410;-71
2023/07/21 01:15:19;;;;;;;2.85;2.75;;;18.70;99.90;;;19.13;76.61;101129.88;5054274;28;20036;-70
2023/07/21 01:17:50;;;;;;;3.08;2.97;;;18.70;99.90;;;19.17;75.95;101122.59;5054477;28;20434;-70
2023/07/21 01:20:22;;;;;;;2.65;2.55;;;18.70;99.90;;;19.14;75.79;101114.66;5053288;28;20455;-70
2023/07/21 01:22:57;;;;;;;2.50;2.40;;;18.70;99.90;;;19.08;76.18;101114.88;5050695;28;20067;-70
2023/07/21 01:25:28;;;;;;;2.40;2.30;;;18.70;99.90;;;19.08;76.25;101117.56;5054422;28;20084;-70
2023/07/21 01:27:57;;;;;;;2.85;2.75;;;18.60;99.90;;;19.07;76.70;101113.09;5051919;28;20147;-71
2023/07/21 01:30:28;;;;;;;2.80;2.70;;;18.60;99.90;;;19.10;77.02;101118.38;5053889;28;20108;-72
2023/07/21 01:32:58;;;;;;;2.58;2.47;;;18.70;99.90;;;19.23;76.57;101111.63;5061364;28;20106;-71
2023/07/21 01:35:30;;;;;;;2.50;2.40;;;18.70;99.90;;;19.23;75.07;101111.63;5054391;28;20442;-70
2023/07/21 01:37:59;;;;;;;2.60;2.50;;;18.80;99.90;;;19.25;76.11;101109.78;5054149;28;20080;-72
2023/07/21 01:40:30;;;;;;;2.63;2.53;;;18.80;99.90;;;19.32;76.44;101108.63;5050718;28;20045;-71
2023/07/21 01:42:59;;;;;;;2.95;2.85;;;18.90;99.90;;;19.35;74.74;101103.19;5053792;28;20064;-71
2023/07/21 01:45:29;;;;;;;2.63;2.53;;;18.90;99.90;;;19.42;73.24;101110.06;5054017;28;20067;-71
2023/07/21 01:47:58;;;;;;;2.75;2.65;;;19.00;99.90;;;19.45;72.53;101109.97;5052416;28;20061;-73
2023/07/21 01:50:28;;;;;;;2.88;2.78;;;19.00;99.90;;;19.51;73.10;101109.75;5052667;28;20048;-70
2023/07/21 01:53:00;;;;;;;2.60;2.50;;;19.10;99.90;;;19.47;73.87;101110.78;5053844;28;20041;-72
2023/07/21 01:55:37;;;;;;;5.55;5.25;;;19.00;99.90;;;19.51;75.28;101107.06;5053876;28;20467;-72
2023/07/21 01:58:09;;;;;;;2.47;2.38;;;19.00;99.90;;;19.52;76.37;101111.50;5052591;28;20049;-70
2023/07/21 02:00:43;;;;;;;2.70;2.60;;;19.00;99.90;;;19.39;76.14;101108.41;5052529;28;20048;-70
2023/07/21 02:03:20;;;;;;;2.60;2.50;;;19.00;99.90;;;19.28;76.76;101112.38;5050026;28;20056;-71
2023/07/21 02:05:49;;;;;;;2.30;2.20;;;18.80;99.90;;;19.25;77.46;101109.78;5053346;28;20049;-71
2023/07/21 02:08:17;;;;;;;2.67;2.58;;;18.80;99.90;;;19.32;77.69;101108.63;5053572;28;20090;-70
2023/07/21 02:10:48;;;;;;;2.42;2.33;;;18.80;99.90;;;19.36;77.86;101110.28;5052205;28;20087;-71
2023/07/21 02:13:40;;;;;;;2.45;2.35;;;18.90;99.90;;;19.31;76.63;101105.06;5051026;28;20520;-70
2023/07/21 02:16:09;;;;;;;2.53;2.42;;;18.80;99.90;;;19.21;77.29;101102.78;5052131;28;20045;-70
2023/07/21 02:18:42;;;;;;;2.47;2.38;;;18.70;99.90;;;19.10;78.65;101091.56;5048331;28;20033;-71
2023/07/21 02:21:11;;;;;;;2.45;2.35;;;18.60;99.90;;;19.13;79.48;101092.31;5050011;28;20044;-71
2023/07/21 02:23:39;;;;;;;3.20;3.10;;;18.70;99.90;;;19.18;80.49;101086.81;5051929;28;20049;-71
2023/07/21 02:26:10;;;;;;;2.80;2.70;;;18.70;99.90;;;19.12;80.34;101087.03;5066730;28;20050;-71
2023/07/21 02:28:38;;;;;;;2.40;2.30;;;18.70;99.90;;;19.08;80.07;101080.00;5053267;28;20041;-71
2023/07/21 02:31:07;;;;;;;2.40;2.30;;;18.60;99.90;;;19.00;78.44;101080.28;5052823;28;20049;-71
2023/07/21 02:33:35;;;;;;;2.70;2.60;;;18.60;99.90;;;18.88;78.20;101078.03;5052689;28;20053;-70
2023/07/21 02:36:06;;;;;;;2.50;2.40;;;18.50;99.90;;;19.00;78.99;101074.94;5051592;28;20064;-71
2023/07/21 02:38:36;;;;;;;2.30;2.20;;;18.50;99.90;;;18.98;78.98;101090.19;5053034;28;20403;-71
2023/07/21 02:41:05;;;;;;;2.50;2.40;;;18.50;99.90;;;18.87;79.10;101089.69;5052945;28;20048;-71
2023/07/21 02:43:35;;;;;;;2.45;2.35;;;18.50;99.90;;;18.85;79.52;101087.06;5066143;28;20558;-71
2023/07/21 02:46:04;;;;;;;2.80;2.70;;;18.40;99.90;;;18.82;79.63;101087.16;5052644;28;20076;-71
2023/07/21 02:48:34;;;;;;;2.67;2.58;;;18.40;99.90;;;18.80;80.64;101080.97;5051297;28;20052;-71
2023/07/21 02:51:04;;;;;;;2.70;2.60;;;18.30;99.90;;;18.80;80.46;101085.47;5052947;28;20095;-71
2023/07/21 02:53:39;;;;;;;3.20;3.10;;;18.30;99.90;;;18.76;79.78;101083.81;5047746;28;20041;-71
2023/07/21 02:56:07;;;;;;;2.45;2.35;;;18.30;99.90;;;18.68;79.65;101088.56;5051558;28;20411;-71
2023/07/21 02:59:03;;;;;;;2.65;2.55;;;18.20;99.90;;;18.70;80.29;101084.91;5049127;28;20048;-71
2023/07/21 03:01:32;;;;;;;3.00;2.90;;;18.20;99.90;;;18.69;80.17;101090.31;5051372;28;20041;-71
2023/07/21 03:04:03;;;;;;;2.88;2.78;;;18.20;99.90;;;18.68;79.60;101077.84;5050010;28;20057;-71
2023/07/21 03:06:38;;;;;;;2.60;2.50;;;18.20;99.90;;;18.64;79.50;101071.72;5068228;28;20527;-71
2023/07/21 03:09:07;;;;;;;2.30;2.20;;;18.20;99.90;;;18.62;80.47;101068.22;5052995;28;20094;-71
2023/07/21 03:11:35;;;;;;;2.67;2.58;;;18.20;99.90;;;18.61;81.38;101063.78;5051471;28;20106;-71
2023/07/21 03:14:16;;;;;;;3.03;2.92;;;18.10;99.90;;;18.70;81.46;101063.47;5049278;28;20138;-71
2023/07/21 03:16:45;;;;;;;2.60;2.50;;;18.20;99.90;;;18.74;81.34;101078.50;5052977;28;20379;-71
2023/07/21 03:19:13;;;;;;;2.67;2.58;;;18.30;99.90;;;18.67;81.62;101058.22;5050795;28;20349;-71
2023/07/21 03:21:43;;;;;;;2.50;2.40;;;18.20;99.90;;;18.69;82.15;101053.69;5047951;28;20454;-71
2023/07/21 03:24:14;;;;;;;2.50;2.40;;;18.20;99.90;;;18.74;81.15;101051.72;5052400;28;20049;-71
2023/07/21 03:26:42;;;;;;;2.50;2.40;;;18.30;99.90;;;18.58;80.35;101053.16;5064523;28;20053;-71
2023/07/21 03:29:11;;;;;;;2.50;2.40;;;18.20;99.90;;;18.54;78.94;101058.69;5051158;28;20548;-71
2023/07/21 03:31:46;;;;;;;2.60;2.50;;;18.10;99.90;;;18.00;78.17;101053.31;5049887;28;20057;-71
2023/07/21 03:34:15;;;;;;;2.50;2.40;;;17.70;99.90;;;17.82;79.21;101052.09;5067767;28;20106;-71
2023/07/21 03:36:44;;;;;;;2.75;2.65;;;17.50;99.90;;;17.77;80.57;101048.66;5051182;28;20486;-71
2023/07/21 03:39:12;;;;;;;2.50;2.40;;;17.30;99.90;;;17.86;81.29;101052.88;5067706;28;20064;-71
2023/07/21 03:41:40;;;;;;;2.30;2.20;;;17.40;99.90;;;17.94;82.23;101056.19;5052442;28;20037;-70
2023/07/21 03:44:09;;;;;;;3.15;3.05;;;17.40;99.90;;;17.92;81.71;101053.53;5047547;28;20071;-71
2023/07/21 03:46:41;;;;;;;2.55;2.45;;;17.50;99.90;;;17.29;81.71;100928.91;5051091;28;20069;-70
2023/07/21 03:49:32;;;;;;;2.40;2.30;;;17.50;99.90;;;18.24;82.00;101049.84;5048252;28;20422;-71
2023/07/21 03:52:06;;;;;;;2.70;2.60;;;17.70;99.90;;;18.03;81.51;101047.84;5050999;28;20088;-71
2023/07/21 03:54:35;;;;;;;2.50;2.40;;;17.70;99.90;;;18.11;80.42;101045.81;5066446;28;20049;-71
2023/07/21 03:57:04;;;;;;;2.70;2.60;;;17.70;99.90;;;18.14;80.18;101044.84;5067811;28;20091;-71
2023/07/21 03:59:33;;;;;;;3.00;2.90;;;17.70;99.90;;;18.03;80.17;101016.63;5052145;28;20049;-71
2023/07/21 04:02:03;;;;;;;2.60;2.50;;;17.70;99.90;;;18.23;80.78;101042.75;5051976;28;20057;-71
2023/07/21 04:04:33;;;;;;;3.10;3.00;;;17.80;99.90;;;18.36;81.10;101043.19;5052261;28;20051;-71
2023/07/21 04:07:05;;;;;;;2.50;2.40;;;17.90;99.90;;;18.38;81.39;101030.63;5048693;28;20338;-71
2023/07/21 04:09:33;;;;;;;2.60;2.50;;;17.90;99.90;;;18.60;81.53;101037.91;5050934;28;20490;-71
2023/07/21 04:12:02;;;;;;;3.05;2.95;;;18.10;99.90;;;18.46;81.59;100985.75;5052097;28;20039;-71
2023/07/21 04:14:31;;;;;;;2.40;2.30;;;18.20;99.90;;;18.69;80.82;101031.38;5054318;28;20049;-71
2023/07/21 04:16:59;;;;;;;3.47;3.38;;;18.20;99.90;;;18.71;80.10;101019.66;5053713;28;20143;-71
2023/07/21 04:19:27;;;;;;;2.70;2.60;;;18.30;99.90;;;18.69;79.56;101009.94;5055653;28;20106;-70
2023/07/21 04:22:00;;;;;;;3.10;3.00;;;18.30;99.90;;;18.87;79.29;101025.38;5054278;28;20053;-71
2023/07/21 04:24:28;;;;;;;2.70;2.60;;;18.40;99.90;;;18.92;79.05;101023.38;5067311;28;20052;-72
2023/07/21 04:26:57;;;;;;;2.78;2.67;;;18.50;99.90;;;19.02;78.48;101029.28;5055735;28;20047;-71
2023/07/21 04:29:25;;;;;;;2.65;2.55;;;18.60;99.90;;;19.11;77.47;101026.25;5051834;28;20449;-71
2023/07/21 04:32:05;;;;;;;2.63;2.53;;;18.70;99.90;;;19.13;77.76;101025.28;5070907;28;20057;-71
2023/07/21 04:34:35;;;;;;;2.60;2.50;;;18.70;99.90;;;19.07;77.44;101029.97;5053611;28;20060;-71
2023/07/21 04:37:09;;;;;;;2.67;2.57;;;18.70;99.90;;;18.89;77.72;101031.53;5063464;28;20053;-71
2023/07/21 04:39:39;;;;;;;2.53;2.42;;;18.50;99.90;;;18.78;78.25;101026.56;5070700;28;20102;-71
2023/07/21 04:42:09;;;;;;;3.03;2.92;;;18.40;99.90;;;18.59;78.17;101030.81;5062501;28;20045;-71
2023/07/21 04:44:39;;;;;;;2.50;2.40;;;18.20;99.90;;;18.43;78.46;101031.38;5053038;28;20053;-71
2023/07/21 04:47:08;;;;;;;3.50;3.40;;;18.00;99.90;;;18.26;79.11;101031.03;5053793;28;20060;-71
2023/07/21 04:49:43;;;;;;;2.80;2.70;;;17.80;99.90;;;18.09;80.14;101023.56;5058163;28;20052;-71
2023/07/21 04:52:13;;;;;;;2.80;2.70;;;17.70;99.90;;;18.09;80.90;101022.69;5053694;28;20505;-71
2023/07/21 04:54:42;;;;;;;2.85;2.75;;;17.60;99.90;;;18.28;81.53;101018.47;5054651;28;20052;-71
2023/07/21 04:57:10;;;;;;;2.83;2.72;;;17.80;99.90;;;18.40;81.55;101021.63;5053668;28;20551;-70
2023/07/21 04:59:39;;;;;;;2.78;2.67;;;17.90;99.90;;;18.44;80.58;101030.47;5054828;28;20048;-71
2023/07/21 05:02:08;;;;;;;2.58;2.47;;;18.00;99.90;;;18.37;80.21;101034.25;5054871;28;20037;-71
2023/07/21 05:04:36;;;;;;;2.80;2.70;;;18.00;99.90;;;18.34;80.46;101029.88;5052968;28;20486;-71
2023/07/21 05:07:05;;;;;;;2.53;2.42;;;17.90;99.90;;;18.20;80.56;101034.78;5070080;28;20083;-71
2023/07/21 05:09:38;;;;;;;2.95;2.85;;;17.80;99.90;;;18.22;80.61;101030.25;5049539;28;20095;-70
2023/07/21 05:12:11;;;;;;;2.72;2.63;;;17.80;99.90;;;18.25;80.51;101034.66;5067741;28;20061;-71
2023/07/21 05:14:53;;;;;;;2.50;2.40;;;17.80;99.90;;;18.13;80.44;101025.22;5053378;28;20107;-70
2023/07/21 05:17:51;;;;;;;2.40;2.30;;;17.70;99.90;;;18.18;80.00;101011.66;5045703;28;20490;-70
2023/07/21 05:20:58;;;;;;;2.80;2.70;;;17.80;99.90;;;18.43;79.95;101036.72;5047149;28;20095;-71
2023/07/21 05:23:41;;;;;;;2.40;2.30;;;17.90;99.90;;;18.49;79.96;101023.13;5061130;28;20509;-71
2023/07/21 05:26:17;;;;;;;3.10;3.00;;;18.00;99.90;;;18.66;79.78;101012.72;5050443;28;20068;-71
2023/07/21 05:28:46;;;;;;;2.60;2.50;;;18.20;99.90;;;18.68;79.29;101016.19;5053023;28;20128;-71
2023/07/21 05:31:16;;;;;;;2.42;2.33;;;18.30;99.90;;;18.74;79.21;101014.19;5053035;28;20044;-71
2023/07/21 05:34:02;;;;;;;2.75;2.65;;;18.30;99.90;;;18.87;78.61;101017.31;5049961;28;20049;-71
2023/07/21 05:36:31;;;;;;;2.60;2.50;;;18.50;99.90;;;19.07;78.05;101020.13;5052752;28;20045;-71
2023/07/21 05:39:00;;;;;;;2.88;2.78;;;18.60;99.90;;;19.11;77.78;101024.44;5053859;28;20052;-71
2023/07/21 05:41:31;;;;;;;2.50;2.40;;;18.70;99.90;;;19.09;77.94;101022.75;5052764;28;20115;-71
2023/07/21 05:43:59;;;;;;;2.70;2.60;;;18.70;99.90;;;19.03;77.89;101023.00;5052681;28;20397;-71
2023/07/21 05:46:29;;;;;;;2.70;2.60;;;18.70;99.90;;;19.09;77.43;101022.75;5066018;28;20136;-71
2023/07/21 05:49:02;;;;;;;2.40;2.30;;;18.70;99.90;;;19.16;77.94;101021.63;5049515;28;20049;-71
2023/07/21 05:51:31;;;;;;;2.70;2.60;;;18.70;99.90;;;19.14;78.09;101023.47;5052442;28;20076;-71
2023/07/21 05:54:10;;;;;;;2.60;2.50;;;18.70;99.90;;;19.22;78.30;101022.25;5068888;28;20033;-71
2023/07/21 05:56:40;;;;;;;2.53;2.42;;;18.80;99.90;;;19.24;77.09;101023.06;5065696;28;20053;-71
2023/07/21 05:59:17;;;;;;;2.72;2.63;;;18.80;99.90;;;19.36;77.22;101025.31;5066281;28;20076;-71
2023/07/21 06:01:45;;;;;;;2.60;2.50;;;18.90;99.90;;;19.47;76.97;101025.78;5052298;28;20521;-71
2023/07/21 06:04:14;;;;;;;2.53;2.42;;;19.00;99.90;;;19.46;74.83;101018.69;5053647;28;20038;-71
2023/07/21 06:06:48;;;;;;;2.30;2.20;;;19.10;99.90;;;19.55;74.27;101015.63;5052284;28;20044;-71
2023/07/21 06:09:46;;;;;;;2.33;2.22;;;19.10;99.90;;;19.62;73.40;101021.66;5048282;28;20159;-71
2023/07/21 06:12:36;;;;;;;2.67;2.58;;;19.20;99.90;;;19.69;72.80;101015.09;5052026;28;20145;-71
2023/07/21 06:15:28;;;;;;;2.30;2.20;;;19.30;99.90;;;19.82;72.14;101012.81;5037399;28;20486;-71
2023/07/21 06:17:58;;;;;;;2.58;2.47;;;19.40;99.90;;;19.91;71.63;101020.50;5052039;28;20053;-71
2023/07/21 06:20:29;;;;;;;2.70;2.60;;;19.50;99.90;;;19.46;71.18;100935.50;5052130;28;20052;-71
2023/07/21 06:22:58;;;;;;;2.55;2.45;;;19.60;99.90;;;20.07;71.57;101027.88;5048531;28;20053;-71
2023/07/21 06:25:28;;;;;;;2.78;2.67;;;19.70;99.90;;;20.15;71.97;101028.41;5060686;28;20098;-71
2023/07/21 06:28:04;;;;;;;2.90;2.80;;;19.80;99.90;;;20.25;72.57;101024.44;5050601;28;20049;-71
2023/07/21 06:30:33;;;;;;;2.50;2.40;;;19.80;99.90;;;20.37;73.14;101039.19;5068603;28;20099;-71
2023/07/21 06:33:05;;;;;;;2.60;2.50;;;20.00;99.90;;;20.42;73.43;101032.66;5051854;28;20053;-71
2023/07/21 06:35:43;;;;;;;2.85;2.75;;;20.00;99.90;;;20.49;73.06;101025.22;5048302;28;20094;-72
2023/07/21 06:38:37;;;;;;;2.40;2.30;;;20.10;99.90;;;20.60;72.17;101031.91;5048923;28;20068;-72
2023/07/21 06:41:23;;;;;;;2.30;2.20;;;20.20;99.90;;;20.64;70.28;101035.31;5047880;28;20410;-71
2023/07/21 06:44:34;;;;;;;2.47;2.38;;;20.30;99.90;;;20.71;70.08;101027.88;5042027;28;20494;-72
2023/07/21 06:47:11;;;;;;;2.30;2.20;;;20.30;99.90;;;20.71;70.24;101015.31;5051984;28;20417;-71
2023/07/21 06:49:59;;;;;;;2.40;2.30;;;20.40;99.90;;;20.89;69.44;101030.63;5051350;28;20053;-72
2023/07/21 06:52:30;;;;;;;2.47;2.38;;;20.50;99.90;;;20.79;66.52;101002.38;5060074;28;20045;-72
2023/07/21 06:54:59;;;;;;;2.83;2.72;;;20.60;99.90;;;20.99;65.07;101029.28;5047450;28;20044;-71
2023/07/21 06:57:28;;;;;;;2.85;2.75;;;20.60;99.90;;;21.08;64.14;101031.59;5047885;28;20057;-72
2023/07/21 06:59:57;;;;;;;2.67;2.58;;;20.70;99.90;;;21.14;63.06;101027.72;5052737;28;20040;-72
2023/07/21 07:02:26;;;;;;;2.72;2.63;;;20.80;99.90;;;21.24;63.73;101023.69;5052502;28;20041;-72
2023/07/21 07:04:54;;;;;;;3.30;3.20;;;20.90;99.90;;;21.30;63.92;101024.28;5051411;28;20045;-72
2023/07/21 07:07:23;;;;;;;2.22;2.13;;;21.00;99.90;;;21.37;62.96;101025.75;5052352;28;20143;-72
2023/07/21 07:09:51;;;;;;;2.53;2.42;;;21.00;99.90;;;20.83;62.46;100917.94;5052670;28;20083;-74
2023/07/21 07:12:22;;;;;;;;;;;21.00;99.90;;;21.48;62.81;101018.06;5068478;28;20479;-73
2023/07/21 07:14:50;;;;;;;2.70;2.60;;;21.20;99.90;;;21.53;62.50;101017.84;5052567;28;20368;-72
2023/07/21 07:17:20;;;;;;;2.60;2.50;;;21.20;99.90;;;21.60;62.56;101018.44;5048667;28;20037;-73
2023/07/21 07:19:49;;;;;;;2.40;2.30;;;21.20;99.90;;;21.76;62.64;101017.63;5048111;28;20137;-72
2023/07/21 07:22:18;;;;;;;2.60;2.50;;;21.40;99.90;;;21.81;61.84;101014.75;5052524;28;20115;-72
2023/07/21 07:24:46;;;;;;;2.47;2.38;;;21.40;99.90;;;21.87;61.54;101014.44;5052492;28;20053;-70
2023/07/21 07:27:15;;;;;;;2.20;2.10;;;21.50;99.90;;;21.93;61.91;101023.09;5051140;28;20049;-70
2023/07/21 07:29:43;;;;;;;2.00;1.90;;;21.60;99.90;;;22.06;61.28;101026.94;5052284;28;20057;-70
2023/07/21 07:32:12;;;;;;;2.20;2.10;;;21.70;99.90;;;22.21;62.20;101019.91;5052205;28;20140;-73
2023/07/21 07:34:42;;;;;;;2.20;2.10;;;21.90;99.90;;;22.30;61.25;101019.44;5051988;28;20081;-71
2023/07/21 07:37:10;;;;;;;2.42;2.33;;;21.90;99.90;;;22.29;61.07;101023.09;5052119;28;20441;-71
2023/07/21 07:39:39;;;;;;;2.75;2.65;;;22.00;99.90;;;22.33;61.56;101019.31;5051988;28;20072;-71
2023/07/21 07:42:07;;;;;;;2.38;2.28;;;22.00;99.90;;;22.38;60.83;101033.41;5048311;28;20073;-70
2023/07/21 07:44:36;;;;;;;2.50;2.40;;;22.00;99.90;;;22.44;61.48;101025.91;5052349;28;20045;-74
2023/07/21 07:47:05;;;;;;;2.13;2.03;;;22.10;99.90;;;22.40;60.80;101018.91;5048675;28;20483;-74
2023/07/21 07:49:35;;;;;;;2.20;2.10;;;22.10;99.90;;;22.14;61.12;100969.97;5056436;28;20186;-74
2023/07/21 07:52:08;;;;;;;2.33;2.22;;;22.10;99.90;;;22.51;59.27;101014.81;5054792;28;20490;-74
2023/07/21 07:54:37;;;;;;;2.42;2.33;;;22.20;99.90;;;22.67;59.88;101007.69;5056377;28;20041;-74
2023/07/21 07:57:07;;;;;;;2.50;2.40;;;22.30;99.90;;;22.78;59.01;101010.72;5055635;28;20099;-71
2023/07/21 07:59:36;;;;;;;2.22;2.13;;;22.50;99.90;;;22.83;57.34;101019.44;5052233;28;20045;-71
2023/07/21 08:02:05;;;;;;;2.38;2.28;;;22.50;99.90;;;22.83;55.64;101003.25;5055634;28;20045;-70
2023/07/21 08:04:33;;;;;;;2.42;2.33;;;22.50;99.90;;;22.89;56.48;101009.19;5052222;28;20501;-71
2023/07/21 08:07:02;;;;;;;2.50;2.40;;;22.60;99.90;;;22.86;55.78;100993.16;5056008;28;20044;-70
2023/07/21 08:09:31;;;;;;;2.60;2.50;;;22.60;99.90;;;23.06;54.97;101019.09;5056027;28;20076;-70
2023/07/21 08:12:00;;;;;;;2.20;2.10;;;22.70;99.90;;;23.09;56.56;101021.63;5055528;28;20073;-71
2023/07/21 08:14:28;;;;;;;2.42;2.33;;;22.80;99.90;;;23.19;56.17;101012.06;5055386;28;20041;-71
2023/07/21 08:16:56;;;;;;;2.55;2.45;;;22.80;99.90;;;23.38;56.41;101023.69;5055538;28;20041;-72
2023/07/21 08:19:25;;;;;;;2.35;2.25;;;23.00;99.90;;;23.44;55.58;101011.66;5054304;28;20402;-72
2023/07/21 08:21:53;;;;;;;2.33;2.22;;;23.10;99.90;;;23.60;55.08;101021.50;5055221;28;20052;-71
2023/07/21 08:24:21;;;;;;;2.13;2.03;;;23.20;99.90;;;23.64;54.69;101025.78;5055490;28;20410;-71
2023/07/21 08:26:51;;;;;;;2.35;2.25;;;23.30;99.90;;;23.72;53.72;101028.94;5055196;28;20124;-71
2023/07/21 08:29:20;;;;;;;2.43;2.33;;;23.40;99.90;;;23.79;54.07;101030.31;5055136;28;20053;-68
2023/07/21 08:31:48;;;;;;;2.50;2.40;;;23.50;99.90;;;23.83;53.83;101036.44;5055089;28;20571;-69
2023/07/21 08:34:16;;;;;;;2.40;2.30;;;23.50;99.90;;;23.82;53.91;101019.38;5054852;28;20041;-70
2023/07/21 08:36:45;;;;;;;2.17;2.08;;;23.50;99.90;;;23.52;53.57;100964.34;5054940;28;20627;-74
2023/07/21 08:39:22;;;;;;;2.28;2.17;;;23.60;99.90;;;23.81;53.81;101023.00;5054986;28;20048;-72
2023/07/21 08:41:52;;;;;;;2.35;2.25;;;23.50;99.90;;;23.95;53.23;101016.81;5054827;28;20116;-69
2023/07/21 08:44:22;;;;;;;2.58;2.47;;;23.60;99.90;;;24.04;53.18;101022.59;5054842;28;20383;-69
2023/07/21 08:46:51;;;;;;;2.40;2.30;;;23.70;99.90;;;24.08;52.99;101023.28;5051814;28;20391;-67
2023/07/21 08:49:19;;;;;;;2.17;2.08;;;23.80;99.90;;;24.11;52.20;101024.00;5055057;28;20049;-67
2023/07/21 08:51:49;;;;;;;2.17;2.08;;;23.80;99.90;;;23.59;52.61;100924.38;5054731;28;20088;-67
2023/07/21 08:54:17;;;;;;;2.05;1.95;;;23.80;99.90;;;24.17;52.74;101017.38;5054648;28;20127;-67
2023/07/21 08:56:45;;;;;;;2.40;2.30;;;23.90;99.90;;;24.24;52.41;101020.56;5054516;28;20045;-69
2023/07/21 08:59:15;;;;;;;2.30;2.20;;;23.90;99.90;;;24.24;52.46;101017.88;5054169;28;20041;-68
2023/07/21 09:01:44;;;;;;;2.10;2.00;;;23.90;99.90;;;24.24;53.02;101017.88;5050662;28;20045;-68
2023/07/21 09:04:24;;;;;;;2.80;2.70;;;23.90;99.90;;;24.09;53.11;101001.59;5054460;28;20120;-69
2023/07/21 09:06:55;;;;;;;2.30;2.20;;;23.90;99.90;;;24.16;53.16;101026.44;5052368;28;20054;-69
2023/07/21 09:09:25;;;;;;;1.92;1.83;;;23.80;99.90;;;24.14;53.48;101015.72;5054227;28;20098;-68
2023/07/21 09:12:02;;;;;;;2.38;2.28;;;23.80;99.90;;;24.17;53.86;101042.59;5054330;28;20154;-70
2023/07/21 09:14:38;;;;;;;1.70;1.70;;;23.80;99.90;;;24.02;53.77;101021.81;5051611;28;20128;-71
2023/07/21 09:17:09;;;;;;;2.65;2.55;;;23.60;99.90;;;23.81;53.11;101012.19;5054259;28;20053;-69
2023/07/21 09:19:40;;;;;;;2.72;2.63;;;23.50;99.90;;;23.15;52.82;100929.53;5054201;28;20423;-71
2023/07/21 09:22:09;;;;;;;2.00;1.90;;;23.30;99.90;;;23.60;54.19;101015.22;5050883;28;20073;-69
2023/07/21 09:24:48;;;;;;;2.17;2.08;;;23.30;99.90;;;23.29;54.11;100997.13;5054068;28;20467;-70
2023/07/21 09:27:19;;;;;;;3.35;3.15;;;23.10;99.90;;;23.36;54.72;101009.38;5054127;28;20045;-70
2023/07/21 09:29:48;;;;;;;2.17;2.08;;;23.10;99.90;;;23.23;54.62;101016.34;5054035;28;20052;-68
2023/07/21 09:32:21;;;;;;;2.77;2.57;;;23.00;99.90;;;22.85;55.52;101014.84;5053954;28;20040;-69
2023/07/21 09:34:55;;;;;;;2.30;2.20;;;22.70;99.90;;;22.60;57.01;101022.44;5050489;28;20491;-68
2023/07/21 09:37:26;;;;;;;2.60;2.50;;;22.30;99.90;;;22.61;57.38;101018.81;5054247;28;20561;-67
2023/07/21 09:39:57;;;;;;;2.45;2.35;;;22.30;99.90;;;22.33;58.05;101020.19;5053903;28;20490;-69
2023/07/21 09:42:28;;;;;;;2.80;2.70;;;22.10;99.90;;;22.10;60.03;101015.06;5053847;28;20071;-70
2023/07/21 09:44:59;;;;;;;2.28;2.17;;;21.90;99.90;;;22.00;60.87;101010.19;5054262;28;20041;-71
2023/07/21 09:47:27;;;;;;;2.88;2.67;;;21.80;99.90;;;22.05;61.92;101022.50;5050406;28;20383;-71
2023/07/21 09:49:58;;;;;;;2.30;2.20;;;21.80;99.90;;;22.10;62.59;101014.19;5053572;28;20043;-66
2023/07/21 09:52:30;;;;;;;2.30;2.20;;;21.80;99.90;;;22.11;62.86;101024.91;5053650;28;20045;-66
2023/07/21 09:55:09;;;;;;;2.40;2.30;;;21.80;99.90;;;22.08;61.78;101014.28;5053566;28;20041;-67
2023/07/21 09:57:43;;;;;;;2.50;2.40;;;21.80;99.90;;;22.18;62.01;101010.16;5049866;28;20098;-66
2023/07/21 10:00:16;;;;;;;2.70;2.60;;;21.90;99.90;;;22.10;62.04;101009.69;5052416;28;20049;-66
2023/07/21 10:02:47;;;;;;;2.60;2.50;;;21.90;99.90;;;21.55;61.71;100916.34;5053375;28;20045;-66
2023/07/21 10:05:16;;;;;;;3.50;3.30;;;21.80;99.90;;;22.09;61.82;101009.75;5053410;28;20399;-67
2023/07/21 10:07:50;;;;;;;3.80;2.65;;;21.80;99.90;;;22.04;62.23;101012.69;5053112;28;20049;-66
2023/07/21 10:10:20;;;;;;;2.47;2.38;;;21.80;99.90;;;21.92;61.33;101010.59;5049472;28;20071;-66
2023/07/21 10:12:51;;;;;;;2.60;2.50;;;21.70;99.90;;;21.90;62.40;101022.38;5053040;28;20045;-66
2023/07/21 10:15:23;;;;;;;3.13;3.03;;;21.60;99.90;;;21.25;63.53;100920.50;5050959;28;20056;-66
2023/07/21 10:18:00;;;;;;;3.17;3.08;;;21.50;99.90;;;21.65;64.96;101009.19;5053273;28;20051;-68
2023/07/21 10:20:46;;;;;;;2.70;2.60;;;21.40;99.90;;;21.28;66.99;101006.47;5049919;28;20041;-68
2023/07/21 10:23:17;;;;;;;2.40;2.30;;;21.10;99.90;;;21.34;66.97;101020.53;5053020;28;20037;-68
2023/07/21 10:26:00;;;;;;;3.05;2.95;;;21.00;99.90;;;21.41;66.32;101030.06;5049379;28;20045;-68
2023/07/21 10:28:39;;;;;;;2.63;2.53;;;21.10;99.90;;;21.29;66.16;101021.69;5053299;28;20127;-65
2023/07/21 10:31:38;;;;;;;3.25;3.15;;;21.00;99.90;;;21.20;65.26;101022.06;5049326;28;20040;-65